Time;durP1;ratioP1;P1;durP2;ratioP2;P2;SDS_P1;SDS_P2;PMS_P1;PMS_P2;Temp;Humidity;BMP_temperature;BMP_pressure;BME280_temperature;BME280_humidity;BME280_pressure;Samples;Min_cycle;Max_cycle;Signal;HPM_P1;HPM_P2
2021/10/27 00:00:17;;;;;;;21.40;10.90;;;;;;;4.24;68.97;100377.73;116396;1197;138519;-61
2021/10/27 00:02:46;;;;;;;22.40;10.80;;;;;;;4.23;68.87;100373.56;116569;1201;22234;-61
2021/10/27 00:05:14;;;;;;;22.30;11.50;;;;;;;4.22;68.94;100378.52;116465;1201;136438;-61
2021/10/27 00:07:43;;;;;;;21.30;11.00;;;;;;;4.20;69.18;100378.19;116647;1202;22269;-62
2021/10/27 00:10:18;;;;;;;17.40;11.00;;;;;;;4.16;69.16;100371.14;116506;1200;137757;-61
2021/10/27 00:12:47;;;;;;;20.60;12.20;;;;;;;4.17;69.23;100368.96;116501;1202;22970;-61
2021/10/27 00:15:16;;;;;;;22.50;11.00;;;;;;;4.14;69.42;100369.81;116499;1201;22145;-61
2021/10/27 00:17:45;;;;;;;19.00;11.10;;;;;;;4.13;69.68;100365.48;116498;1201;137930;-61
2021/10/27 00:20:13;;;;;;;23.10;10.90;;;;;;;4.12;69.79;100364.77;116565;1201;23180;-62
2021/10/27 00:22:42;;;;;;;21.10;11.30;;;;;;;4.11;69.83;100362.35;116466;1195;139213;-62
2021/10/27 00:25:10;;;;;;;21.80;10.70;;;;;;;4.10;69.99;100361.73;116533;1201;23178;-62
2021/10/27 00:27:38;;;;;;;23.20;11.30;;;;;;;4.09;70.04;100362.18;116536;1201;22309;-61
2021/10/27 00:30:06;;;;;;;18.60;10.40;;;;;;;4.07;69.81;100360.32;116492;1196;138023;-61
2021/10/27 00:32:35;;;;;;;17.30;11.50;;;;;;;4.06;69.98;100361.39;116512;1201;23102;-62
2021/10/27 00:35:03;;;;;;;20.10;10.90;;;;;;;4.05;69.99;100360.46;116360;1202;138843;-61
2021/10/27 00:37:31;;;;;;;19.10;10.10;;;;;;;4.03;70.14;100357.61;116562;1201;22278;-61
2021/10/27 00:40:00;;;;;;;20.90;10.90;;;;;;;4.01;70.37;100358.84;114946;1201;24032;-60
2021/10/27 00:42:28;;;;;;;19.10;11.00;;;;;;;3.98;70.30;100358.84;112163;1202;139348;-60
2021/10/27 00:44:57;;;;;;;19.20;10.00;;;;;;;3.98;70.73;100354.37;116544;1201;22361;-61
2021/10/27 00:47:25;;;;;;;22.60;11.10;;;;;;;3.97;70.70;100356.02;116378;1201;140665;-60
2021/10/27 00:49:53;;;;;;;24.00;12.10;;;;;;;3.95;70.77;100354.67;116597;1202;23061;-61
2021/10/27 00:52:21;;;;;;;19.70;10.70;;;;;;;3.93;70.70;100351.70;116422;1202;138438;-61
2021/10/27 00:54:50;;;;;;;21.70;10.80;;;;;;;3.93;70.93;100346.89;116538;1202;22734;-61
2021/10/27 00:57:21;;;;;;;19.90;10.70;;;;;;;3.93;70.85;100352.65;116549;1202;22312;-61
2021/10/27 00:59:48;;;;;;;18.10;10.30;;;;;;;3.91;71.09;100349.08;116421;1201;138507;-61
2021/10/27 01:02:17;;;;;;;32.40;11.60;;;;;;;3.89;71.36;100345.67;116585;1202;22315;-60
2021/10/27 01:04:46;;;;;;;22.20;12.50;;;;;;;3.89;71.28;100343.27;116451;1202;138242;-61
2021/10/27 01:07:15;;;;;;;18.80;10.40;;;;;;;3.88;71.59;100339.91;116519;1200;22241;-62
2021/10/27 01:09:44;;;;;;;17.90;10.90;;;;;;;3.87;71.58;100332.14;116508;1201;22199;-62
2021/10/27 01:12:13;;;;;;;19.40;11.00;;;;;;;3.84;71.72;100328.92;116376;1201;138578;-61
2021/10/27 01:14:46;;;;;;;21.20;12.30;;;;;;;3.86;71.92;100329.77;116527;1201;22375;-61
2021/10/27 01:17:16;;;;;;;22.40;12.10;;;;;;;3.85;71.88;100332.73;116422;1201;137645;-61
2021/10/27 01:19:48;;;;;;;21.20;12.10;;;;;;;3.82;72.06;100332.80;116532;1201;22334;-61
2021/10/27 01:22:17;;;;;;;21.30;11.10;;;;;;;3.82;72.09;100335.98;116488;1201;138187;-61
2021/10/27 01:24:46;;;;;;;20.20;11.50;;;;;;;3.80;72.30;100332.82;116511;1202;23281;-61
2021/10/27 01:27:14;;;;;;;21.70;10.70;;;;;;;3.78;72.38;100330.73;116531;1201;22239;-61
2021/10/27 01:29:42;;;;;;;21.50;10.60;;;;;;;3.78;72.28;100324.13;116440;1201;137715;-62
2021/10/27 01:32:10;;;;;;;20.60;11.40;;;;;;;3.78;72.57;100325.54;116572;1200;22402;-62
2021/10/27 01:34:38;;;;;;;16.80;10.40;;;;;;;3.77;72.57;100323.66;116436;1201;138172;-61
2021/10/27 01:37:06;;;;;;;20.50;11.80;;;;;;;3.76;72.58;100323.15;116686;1201;22389;-61
2021/10/27 01:39:35;;;;;;;18.20;11.00;;;;;;;3.71;72.88;100316.07;115769;1201;25247;-56
2021/10/27 01:42:03;;;;;;;18.10;10.80;;;;;;;3.71;72.94;100318.90;112195;1195;139307;-61
2021/10/27 01:44:31;;;;;;;19.30;11.50;;;;;;;3.70;73.22;100314.33;112222;1180;22470;-61
2021/10/27 01:47:00;;;;;;;24.20;11.90;;;;;;;3.70;73.21;100316.06;112336;1201;138865;-61
2021/10/27 01:49:28;;;;;;;19.50;10.30;;;;;;;3.67;73.09;100314.59;112251;1195;22470;-61
2021/10/27 01:51:58;;;;;;;19.60;10.90;;;;;;;3.64;73.33;100314.22;116519;1201;22182;-61
2021/10/27 01:54:26;;;;;;;20.20;10.90;;;;;;;3.62;73.59;100312.12;116530;1201;138410;-61
2021/10/27 01:56:57;;;;;;;16.40;11.00;;;;;;;3.59;73.73;100302.86;116570;1201;23973;-61
2021/10/27 01:59:25;;;;;;;23.00;13.30;;;;;;;3.58;73.61;100302.48;116496;1201;137640;-61
2021/10/27 02:01:54;;;;;;;22.20;12.50;;;;;;;3.58;73.95;100308.09;116573;1201;22157;-62
2021/10/27 02:04:23;;;;;;;18.70;11.50;;;;;;;3.58;73.92;100309.52;116396;1201;138029;-61
2021/10/27 02:06:51;;;;;;;19.10;10.80;;;;;;;3.57;74.04;100310.31;116577;1201;22334;-61
2021/10/27 02:09:20;;;;;;;23.00;12.10;;;;;;;3.57;74.10;100305.29;116597;1201;22282;-61
2021/10/27 02:11:49;;;;;;;19.80;10.40;;;;;;;3.58;74.04;100301.59;116507;1187;138850;-61
2021/10/27 02:14:18;;;;;;;18.10;11.60;;;;;;;3.59;74.10;100302.20;116603;1201;22362;-61
2021/10/27 02:16:45;;;;;;;17.50;10.20;;;;;;;3.56;74.29;100300.35;116479;1201;138726;-61
2021/10/27 02:19:14;;;;;;;17.20;10.00;;;;;;;3.59;74.28;100299.14;116564;1201;22247;-61
2021/10/27 02:21:42;;;;;;;18.40;10.30;;;;;;;3.59;74.35;100296.45;116635;1201;22232;-61
2021/10/27 02:24:10;;;;;;;14.80;10.10;;;;;;;3.59;74.37;100297.16;116481;1201;139105;-61
2021/10/27 02:26:38;;;;;;;15.70;9.40;;;;;;;3.57;74.37;100301.33;116555;1201;22393;-61
2021/10/27 02:29:06;;;;;;;19.90;10.30;;;;;;;3.58;74.58;100297.47;116437;1201;138499;-61
2021/10/27 02:31:34;;;;;;;17.80;10.40;;;;;;;3.57;74.57;100297.59;116570;1202;23454;-61
2021/10/27 02:34:02;;;;;;;16.70;9.60;;;;;;;3.54;74.72;100295.07;116688;1201;22315;-61
2021/10/27 02:36:31;;;;;;;16.50;10.50;;;;;;;3.56;74.94;100297.66;116408;1197;137515;-61
2021/10/27 02:38:59;;;;;;;17.80;9.50;;;;;;;3.56;75.04;100297.16;116490;1202;22406;-61
2021/10/27 02:41:27;;;;;;;19.50;9.50;;;;;;;3.56;75.01;100299.98;116414;1201;138261;-58
2021/10/27 02:43:55;;;;;;;17.00;10.00;;;;;;;3.55;74.93;100296.45;116584;1202;22999;-59
2021/10/27 02:46:23;;;;;;;12.70;9.20;;;;;;;3.55;75.09;100296.53;116496;1201;138043;-59
2021/10/27 02:48:55;;;;;;;17.60;10.50;;;;;;;3.54;75.16;100298.96;116616;1201;23005;-58
2021/10/27 02:51:23;;;;;;;15.30;9.80;;;;;;;3.54;75.39;100299.20;116642;1200;22327;-59
2021/10/27 02:53:51;;;;;;;15.80;9.50;;;;;;;3.55;75.55;100291.88;116703;1199;138223;-59
2021/10/27 02:56:19;;;;;;;17.30;9.90;;;;;;;3.55;75.39;100295.41;116737;1199;22418;-59
2021/10/27 02:58:47;;;;;;;18.80;9.60;;;;;;;3.55;75.43;100290.44;116584;1200;138358;-59
2021/10/27 03:01:16;;;;;;;16.60;9.50;;;;;;;3.56;75.68;100292.85;116689;1200;23036;-58
2021/10/27 03:03:45;;;;;;;19.50;10.10;;;;;;;3.56;75.84;100288.30;116691;1200;22810;-59
2021/10/27 03:06:13;;;;;;;17.20;9.80;;;;;;;3.57;75.69;100282.63;116714;1200;138667;-59
2021/10/27 03:08:41;;;;;;;17.40;9.70;;;;;;;3.55;75.80;100272.83;116768;1199;22332;-59
2021/10/27 03:11:10;;;;;;;14.00;9.20;;;;;;;3.55;75.97;100274.27;116516;1200;138964;-59
2021/10/27 03:13:40;;;;;;;16.90;9.20;;;;;;;3.53;75.86;100279.36;116733;1200;22294;-59
2021/10/27 03:16:08;;;;;;;16.00;9.60;;;;;;;3.52;75.87;100286.30;116808;1200;23180;-59
2021/10/27 03:18:38;;;;;;;16.50;9.90;;;;;;;3.51;76.29;100292.34;116491;1186;137465;-60
2021/10/27 03:21:07;;;;;;;16.60;9.70;;;;;;;3.50;76.10;100281.67;116810;1199;22289;-59
2021/10/27 03:23:35;;;;;;;16.40;9.70;;;;;;;3.49;76.31;100284.81;116523;1199;138097;-59
2021/10/27 03:26:03;;;;;;;19.20;9.80;;;;;;;3.50;76.36;100279.52;116765;1199;22224;-59
2021/10/27 03:28:31;;;;;;;18.00;10.00;;;;;;;3.49;76.39;100274.83;116698;1199;138406;-59
2021/10/27 03:30:59;;;;;;;18.80;9.80;;;;;;;3.50;76.49;100276.42;116719;1200;22240;-57
2021/10/27 03:33:27;;;;;;;21.10;10.70;;;;;;;3.52;76.68;100275.60;116658;1200;22326;-58
2021/10/27 03:35:56;;;;;;;17.00;10.50;;;;;;;3.52;76.60;100271.01;116597;1200;137943;-58
2021/10/27 03:38:24;;;;;;;24.00;11.20;;;;;;;3.53;76.78;100275.17;116697;1200;22307;-58
2021/10/27 03:40:52;;;;;;;17.50;10.00;;;;;;;3.53;76.87;100271.77;116537;1199;138710;-60
2021/10/27 03:43:21;;;;;;;15.90;10.30;;;;;;;3.53;76.71;100269.61;116635;1193;22421;-60
2021/10/27 03:45:49;;;;;;;17.10;9.50;;;;;;;3.52;76.96;100267.08;116724;1200;22318;-60
2021/10/27 03:48:18;;;;;;;17.10;10.10;;;;;;;3.51;76.80;100268.98;116524;1200;138118;-60
2021/10/27 03:50:46;;;;;;;15.40;9.30;;;;;;;3.50;76.82;100264.69;116693;1200;22702;-60
2021/10/27 03:53:15;;;;;;;14.60;10.20;;;;;;;3.49;76.66;100264.42;116508;1200;137757;-60
2021/10/27 03:55:43;;;;;;;15.00;10.20;;;;;;;3.47;76.86;100261.58;116747;1200;24306;-60
2021/10/27 03:58:11;;;;;;;15.00;10.00;;;;;;;3.45;76.94;100262.79;116658;1200;23107;-60
2021/10/27 04:00:40;;;;;;;15.90;10.00;;;;;;;3.44;76.97;100265.39;116552;1200;139010;-60
2021/10/27 04:03:08;;;;;;;18.80;11.10;;;;;;;3.45;77.20;100266.07;116707;1199;22298;-60
2021/10/27 04:05:37;;;;;;;20.00;10.90;;;;;;;3.45;77.22;100261.59;116606;1200;138076;-60
2021/10/27 04:08:06;;;;;;;16.30;10.20;;;;;;;3.44;77.14;100262.61;116621;1200;22289;-60
2021/10/27 04:10:35;;;;;;;16.70;9.90;;;;;;;3.43;77.29;100263.23;116579;1200;137953;-60
2021/10/27 04:13:03;;;;;;;20.80;10.30;;;;;;;3.43;77.32;100262.02;116641;1200;22517;-60
2021/10/27 04:15:32;;;;;;;23.10;9.80;;;;;;;3.43;77.47;100257.51;116678;1200;22326;-60
2021/10/27 04:18:00;;;;;;;15.80;9.10;;;;;;;3.43;77.42;100257.14;116537;1200;139764;-60
2021/10/27 04:20:31;;;;;;;20.00;9.70;;;;;;;3.43;77.67;100258.42;116667;1200;22333;-60
2021/10/27 04:22:59;;;;;;;15.10;9.60;;;;;;;3.43;77.66;100260.13;116611;1200;138949;-60
2021/10/27 04:25:27;;;;;;;15.40;9.10;;;;;;;3.44;77.82;100260.55;116668;1200;22320;-60
2021/10/27 04:27:55;;;;;;;16.00;9.50;;;;;;;3.46;77.72;100264.70;116648;1200;22219;-60
2021/10/27 04:30:24;;;;;;;15.70;9.90;;;;;;;3.47;77.92;100266.27;116580;1200;138761;-60
2021/10/27 04:32:52;;;;;;;12.60;9.20;;;;;;;3.48;77.90;100265.45;116673;1200;23015;-60
2021/10/27 04:35:21;;;;;;;13.40;9.20;;;;;;;3.50;78.03;100267.95;116683;1200;137581;-60
2021/10/27 04:37:50;;;;;;;12.90;9.00;;;;;;;3.50;77.96;100268.91;116772;1199;22246;-61
2021/10/27 04:40:19;;;;;;;20.50;11.00;;;;;;;3.50;77.87;100267.66;114625;1193;138790;-59
2021/10/27 04:42:47;;;;;;;19.70;10.00;;;;;;;3.49;77.81;100270.89;112529;1200;22470;-60
2021/10/27 04:45:19;;;;;;;17.50;10.20;;;;;;;3.49;77.85;100272.96;112603;1193;22555;-60
2021/10/27 04:47:48;;;;;;;15.20;10.40;;;;;;;3.49;78.10;100273.75;112447;1199;138286;-61
2021/10/27 04:50:16;;;;;;;17.00;10.20;;;;;;;3.49;78.01;100268.91;116702;1199;22807;-61
2021/10/27 04:52:44;;;;;;;17.50;9.70;;;;;;;3.48;77.83;100266.89;116540;1200;137996;-61
2021/10/27 04:55:12;;;;;;;13.60;9.30;;;;;;;3.47;77.97;100273.44;116764;1199;22349;-62
2021/10/27 04:57:41;;;;;;;16.20;10.70;;;;;;;3.47;77.98;100277.46;116742;1199;22331;-62
2021/10/27 05:00:09;;;;;;;17.00;10.20;;;;;;;3.47;78.14;100286.70;116516;1200;137811;-62
2021/10/27 05:02:38;;;;;;;15.90;9.70;;;;;;;3.48;77.93;100288.41;116687;1199;22253;-62
2021/10/27 05:05:07;;;;;;;23.30;11.70;;;;;;;3.49;78.01;100281.16;116515;1200;139126;-62
2021/10/27 05:07:36;;;;;;;24.80;12.10;;;;;;;3.48;78.28;100279.80;116768;1199;22466;-62
2021/10/27 05:10:04;;;;;;;25.90;11.10;;;;;;;3.50;78.03;100279.56;116866;1199;23037;-62
2021/10/27 05:12:32;;;;;;;17.80;10.50;;;;;;;3.50;77.99;100278.52;116523;1197;138470;-62
2021/10/27 05:15:00;;;;;;;19.90;10.50;;;;;;;3.53;78.28;100282.25;116863;1199;22389;-62
2021/10/27 05:17:28;;;;;;;16.00;9.30;;;;;;;3.54;78.11;100285.54;116653;1196;138179;-62
2021/10/27 05:19:56;;;;;;;16.40;10.20;;;;;;;3.55;78.16;100290.89;116913;1199;22391;-62
2021/10/27 05:22:26;;;;;;;19.50;11.00;;;;;;;3.58;78.17;100286.70;116848;1199;138439;-62
2021/10/27 05:24:54;;;;;;;20.00;11.00;;;;;;;3.60;78.05;100291.81;116927;1198;22348;-63
2021/10/27 05:27:22;;;;;;;15.90;10.30;;;;;;;3.62;78.22;100291.11;116666;1199;22444;-62
2021/10/27 05:29:50;;;;;;;16.80;10.50;;;;;;;3.65;78.24;100288.48;116821;1199;137900;-63
2021/10/27 05:32:18;;;;;;;16.40;10.10;;;;;;;3.66;78.28;100291.02;116801;1199;22330;-65
2021/10/27 05:34:46;;;;;;;27.70;13.10;;;;;;;3.69;78.20;100293.51;116683;1199;139245;-65
2021/10/27 05:37:14;;;;;;;23.20;12.90;;;;;;;3.72;78.32;100289.35;116872;1199;22203;-65
2021/10/27 05:39:45;;;;;;;19.80;12.10;;;;;;;3.75;78.36;100290.73;116788;1199;22344;-65
2021/10/27 05:42:18;;;;;;;19.60;11.00;;;;;;;3.77;78.06;100289.91;116581;1200;138778;-64
2021/10/27 05:44:48;;;;;;;17.50;10.00;;;;;;;3.80;78.28;100291.89;116837;1199;23037;-65
2021/10/27 05:47:16;;;;;;;22.30;10.90;;;;;;;3.85;78.23;100290.02;116529;1200;137892;-65
2021/10/27 05:57:45;;;;;;;19.10;10.00;;;;;;;4.02;78.06;100306.34;116864;1200;22246;-65
2021/10/27 06:00:13;;;;;;;18.50;10.60;;;;;;;4.06;77.80;100310.61;116569;1200;137820;-65
2021/10/27 06:02:42;;;;;;;17.10;11.30;;;;;;;4.07;78.03;100306.11;116866;1199;22295;-65
2021/10/27 06:05:11;;;;;;;19.50;10.60;;;;;;;4.12;77.99;100303.99;116751;1198;138976;-65
2021/10/27 06:07:39;;;;;;;17.20;10.60;;;;;;;4.21;77.86;100305.54;116730;1199;23437;-64
2021/10/27 06:10:08;;;;;;;17.30;11.30;;;;;;;4.24;77.71;100301.79;116872;1199;22725;-64
2021/10/27 06:12:36;;;;;;;20.50;10.40;;;;;;;4.29;77.86;100296.39;116793;1199;137684;-64
2021/10/27 06:15:06;;;;;;;16.60;10.60;;;;;;;4.33;77.69;100297.08;116934;1199;24943;-64
2021/10/27 06:17:36;;;;;;;17.50;10.50;;;;;;;4.39;77.72;100305.90;116757;1199;138150;-64
2021/10/27 06:20:05;;;;;;;16.50;10.60;;;;;;;4.44;77.62;100308.30;116706;1193;22214;-64
2021/10/27 06:22:33;;;;;;;18.20;10.30;;;;;;;4.50;77.27;100309.56;116746;1199;138539;-64
2021/10/27 06:25:03;;;;;;;17.70;10.70;;;;;;;4.55;77.48;100310.02;116716;1200;22350;-65
2021/10/27 06:27:31;;;;;;;16.40;10.70;;;;;;;4.62;77.31;100313.99;116695;1200;22422;-65
2021/10/27 06:30:11;;;;;;;20.90;11.00;;;;;;;4.68;77.16;100315.56;116605;1199;137939;-65
2021/10/27 06:35:40;;;;;;;21.10;11.00;;;;;;;4.80;77.11;100320.77;116514;1199;138353;-65
2021/10/27 06:48:44;;;;;;;22.50;11.70;;;;;;;5.10;76.65;100322.17;116582;1199;138604;-63
2021/10/27 06:51:13;;;;;;;20.50;11.60;;;;;;;5.16;76.48;100317.27;116738;1199;23220;-63
2021/10/27 06:53:42;;;;;;;18.40;11.20;;;;;;;5.22;76.30;100305.83;116578;1200;138122;-63
2021/10/27 06:56:13;;;;;;;17.60;10.40;;;;;;;5.29;76.11;100296.84;116707;1200;22283;-64
2021/10/27 06:58:48;;;;;;;25.20;11.00;;;;;;;5.35;75.97;100288.98;116646;1200;139240;-63
2021/10/27 07:17:32;;;;;;;19.50;10.90;;;;;;;5.89;74.46;100287.73;116540;1199;138169;-63
2021/10/27 07:20:01;;;;;;;17.80;10.50;;;;;;;5.97;74.22;100286.96;116650;1200;22234;-64
2021/10/27 07:22:29;;;;;;;15.10;11.30;;;;;;;6.04;74.05;100291.35;116567;1200;138682;-64
2021/10/27 07:25:01;;;;;;;19.20;11.10;;;;;;;6.11;73.99;100289.66;116694;1200;22322;-65
2021/10/27 07:27:31;;;;;;;19.30;10.60;;;;;;;6.19;73.85;100295.44;116680;1200;22236;-65
2021/10/27 07:30:00;;;;;;;19.70;10.50;;;;;;;6.24;73.31;100297.17;116585;1200;138954;-65
2021/10/27 07:32:29;;;;;;;19.70;10.90;;;;;;;6.31;73.11;100293.55;116735;1200;22348;-64
2021/10/27 07:43:02;;;;;;;16.10;10.90;;;;;;;6.60;72.51;100273.77;112285;1201;139234;-64
2021/10/27 07:45:32;;;;;;;19.60;10.70;;;;;;;6.69;72.32;100275.23;112433;1200;25095;-64
2021/10/27 07:48:00;;;;;;;24.60;10.90;;;;;;;6.77;72.04;100277.95;112247;1193;138561;-63
2021/10/27 07:50:28;;;;;;;19.20;11.60;;;;;;;6.83;71.53;100271.67;112467;1198;23479;-65
2021/10/27 07:53:00;;;;;;;22.70;10.90;;;;;;;6.88;71.29;100273.86;116480;1200;137860;-66
2021/10/27 07:55:29;;;;;;;49.20;13.40;;;;;;;6.94;71.04;100280.20;116646;1200;23156;-64
2021/10/27 07:57:57;;;;;;;24.60;12.10;;;;;;;6.99;70.74;100281.39;116730;1200;23216;-64
2021/10/27 08:00:26;;;;;;;18.80;10.90;;;;;;;7.06;70.81;100275.93;116472;1200;137508;-64
2021/10/27 08:03:03;;;;;;;19.10;12.30;;;;;;;7.12;70.70;100267.23;116667;1200;22255;-64
2021/10/27 08:05:40;;;;;;;18.00;12.30;;;;;;;7.21;70.73;100270.55;116593;1199;137895;-64
2021/10/27 08:08:10;;;;;;;18.10;11.20;;;;;;;7.26;70.35;100258.42;116648;1200;22633;-64
2021/10/27 08:10:38;;;;;;;20.10;11.20;;;;;;;7.38;70.09;100259.94;116484;1200;137965;-61
2021/10/27 08:13:07;;;;;;;28.00;12.20;;;;;;;7.48;69.73;100253.91;116654;1201;22344;-64
2021/10/27 08:15:35;;;;;;;18.30;11.90;;;;;;;7.56;69.46;100251.20;116695;1200;22172;-64
2021/10/27 08:18:11;;;;;;;22.60;11.70;;;;;;;7.65;69.13;100255.94;116600;1200;140713;-63
2021/10/27 08:20:39;;;;;;;20.10;12.10;;;;;;;7.75;69.11;100263.70;116680;1199;22138;-63
2021/10/27 08:23:10;;;;;;;31.50;11.00;;;;;;;7.84;68.94;100265.83;116496;1201;138766;-63
2021/10/27 08:25:45;;;;;;;20.50;10.80;;;;;;;7.93;68.63;100269.52;116572;1200;22344;-63
2021/10/27 08:28:18;;;;;;;17.90;11.10;;;;;;;8.02;68.07;100270.84;116619;1200;22314;-63
2021/10/27 08:31:13;;;;;;;18.80;11.30;;;;;;;8.11;67.49;100269.20;116583;1200;137981;-64
2021/10/27 08:33:48;;;;;;;19.90;11.00;;;;;;;8.20;67.11;100269.39;116618;1199;22337;-62
2021/10/27 08:36:16;;;;;;;18.00;10.70;;;;;;;8.27;66.65;100276.70;116511;1201;138329;-62
2021/10/27 08:38:45;;;;;;;18.60;11.00;;;;;;;8.32;66.29;100278.14;116641;1201;22380;-62
2021/10/27 08:41:35;;;;;;;16.70;12.60;;;;;;;8.39;65.82;100278.73;112321;1187;138129;-61
2021/10/27 08:44:04;;;;;;;20.30;12.10;;;;;;;8.45;65.76;100274.37;116611;1201;23047;-61
2021/10/27 08:46:33;;;;;;;20.00;12.60;;;;;;;8.53;65.88;100268.30;116497;1201;137631;-61
2021/10/27 08:49:04;;;;;;;27.80;14.60;;;;;;;8.62;65.44;100270.68;116726;1200;22390;-61
2021/10/27 08:51:32;;;;;;;22.60;12.70;;;;;;;8.68;64.69;100274.27;116687;1200;22525;-62
2021/10/27 08:54:00;;;;;;;19.80;12.10;;;;;;;8.73;64.60;100275.64;116660;1200;137565;-64
2021/10/27 08:56:28;;;;;;;22.60;14.10;;;;;;;8.78;64.63;100277.20;116701;1200;23075;-62
2021/10/27 08:59:07;;;;;;;21.10;12.50;;;;;;;8.85;64.42;100272.23;116473;1200;138046;-63
2021/10/27 09:07:10;;;;;;;22.10;13.80;;;;;;;9.01;63.80;100267.46;116589;1200;137186;-63
2021/10/27 09:09:59;;;;;;;21.80;14.40;;;;;;;9.07;63.34;100264.96;116707;1199;22212;-63
2021/10/27 09:47:04;;;;;;;;;;;;;;;9.51;61.96;100258.59;116567;1200;138797;-63
2021/10/27 10:07:02;;;;;;;29.10;13.50;;;;;;;9.70;59.80;100248.27;111895;1205;136799;-62
2021/10/27 10:09:33;;;;;;;25.00;14.20;;;;;;;9.71;59.46;100241.55;111910;1200;25088;-62
2021/10/27 10:12:03;;;;;;;28.40;15.40;;;;;;;9.76;59.37;100242.94;116047;1204;137342;-63
2021/10/27 10:14:31;;;;;;;37.20;17.00;;;;;;;9.79;59.05;100245.41;116181;1204;22302;-63
2021/10/27 10:17:02;;;;;;;19.70;14.00;;;;;;;9.81;59.22;100240.88;116126;1204;137490;-63
2021/10/27 10:19:35;;;;;;;23.00;13.90;;;;;;;9.84;58.94;100242.84;116210;1204;22331;-63
2021/10/27 10:22:05;;;;;;;28.20;14.10;;;;;;;9.85;58.96;100237.80;116244;1204;22370;-63
2021/10/27 10:24:35;;;;;;;24.00;13.20;;;;;;;9.89;59.13;100236.18;116161;1204;137559;-63
2021/10/27 10:27:13;;;;;;;23.70;14.00;;;;;;;9.92;58.99;100238.86;116263;1204;23497;-64
2021/10/27 10:29:55;;;;;;;25.30;13.80;;;;;;;9.94;59.04;100239.13;116110;1205;137552;-64
2021/10/27 10:32:30;;;;;;;24.60;14.10;;;;;;;9.96;59.09;100243.84;116095;1206;22519;-64
2021/10/27 10:35:01;;;;;;;28.40;14.80;;;;;;;9.97;59.04;100242.33;116136;1204;138958;-63
2021/10/27 10:37:36;;;;;;;30.50;16.10;;;;;;;9.98;58.61;100242.35;116243;1205;22263;-64
2021/10/27 10:40:28;;;;;;;27.40;15.90;;;;;;;9.98;58.74;100242.89;116164;1200;22272;-59
2021/10/27 11:26:01;;;;;;;40.10;16.80;;;;;;;9.89;58.93;100243.13;116321;1203;22375;-59
2021/10/27 11:40:29;;;;;;;29.10;17.60;;;;;;;9.90;59.24;100244.30;114473;1196;24041;-62
2021/10/27 11:51:13;;;;;;;27.40;17.40;;;;;;;9.90;59.13;100246.81;116401;1201;23128;-63
2021/10/27 11:53:42;;;;;;;33.80;18.90;;;;;;;9.89;59.39;100249.84;116622;1201;137595;-63
2021/10/27 11:56:17;;;;;;;31.70;20.00;;;;;;;9.88;59.51;100247.34;116686;1200;22224;-63
2021/10/27 11:58:50;;;;;;;36.00;19.70;;;;;;;9.87;59.49;100254.30;116660;1200;22440;-63
2021/10/27 12:01:33;;;;;;;31.30;19.70;;;;;;;9.86;59.71;100252.98;116575;1201;138238;-63
2021/10/27 12:04:08;;;;;;;35.00;19.60;;;;;;;9.87;59.55;100254.95;116647;1201;23075;-63
2021/10/27 12:06:44;;;;;;;36.40;19.90;;;;;;;9.88;59.90;100253.50;116541;1200;137044;-63
2021/10/27 12:09:30;;;;;;;31.30;19.10;;;;;;;9.89;59.82;100249.50;116688;1201;22479;-63
2021/10/27 12:18:15;;;;;;;39.70;20.50;;;;;;;9.90;60.12;100244.68;116587;1201;138356;-63
2021/10/27 12:20:45;;;;;;;33.20;20.50;;;;;;;9.89;60.25;100255.32;116717;1201;22319;-63
2021/10/27 12:23:16;;;;;;;33.30;19.50;;;;;;;9.86;60.50;100253.61;116559;1200;138023;-63
2021/10/27 12:25:44;;;;;;;35.30;21.10;;;;;;;9.82;60.70;100256.46;116688;1193;22459;-64
2021/10/27 12:28:31;;;;;;;37.00;22.50;;;;;;;9.82;60.88;100261.25;116701;1201;22382;-63
2021/10/27 12:31:18;;;;;;;30.80;20.60;;;;;;;9.81;61.21;100266.45;116648;1200;138540;-63
2021/10/27 12:33:47;;;;;;;35.00;21.10;;;;;;;9.83;61.90;100268.09;116735;1201;22275;-62
2021/10/27 12:36:27;;;;;;;33.60;20.40;;;;;;;9.84;62.01;100269.34;116560;1201;138847;-64
2021/10/27 12:39:08;;;;;;;55.40;25.80;;;;;;;9.80;62.07;100263.39;116698;1201;23465;-63
2021/10/27 12:41:37;;;;;;;37.10;22.60;;;;;;;9.78;62.23;100264.65;112442;1194;137416;-59
2021/10/27 12:44:22;;;;;;;51.30;25.30;;;;;;;9.77;62.48;100262.94;116615;1201;23134;-59
2021/10/27 12:47:12;;;;;;;41.30;23.70;;;;;;;9.78;62.54;100263.17;116626;1201;22317;-59
2021/10/27 12:49:41;;;;;;;31.50;19.50;;;;;;;9.80;62.40;100267.48;116688;1200;24182;-59
2021/10/27 12:52:29;;;;;;;30.70;19.80;;;;;;;9.81;62.62;100267.66;116660;1201;23811;-59
2021/10/27 12:55:20;;;;;;;32.70;17.70;;;;;;;9.80;62.83;100269.42;116576;1201;138809;-59
2021/10/27 12:58:12;;;;;;;38.70;20.20;;;;;;;9.77;62.93;100275.25;116701;1197;22531;-59
2021/10/27 13:08:52;;;;;;;36.30;21.00;;;;;;;9.73;63.43;100283.73;116679;1201;22184;-59
2021/10/27 13:17:06;;;;;;;34.00;18.20;;;;;;;9.69;63.65;100296.63;116712;1186;23170;-59
2021/10/27 13:30:44;;;;;;;27.00;16.20;;;;;;;9.46;64.83;100303.02;116598;1201;140015;-59
2021/10/27 13:33:13;;;;;;;26.50;17.30;;;;;;;9.44;65.01;100309.73;116711;1186;22444;-59
2021/10/27 13:35:41;;;;;;;27.00;17.20;;;;;;;9.41;65.13;100311.41;116644;1201;23415;-59
2021/10/27 13:38:09;;;;;;;33.00;17.70;;;;;;;9.39;65.48;100310.80;116429;1201;138194;-59
2021/10/27 13:40:41;;;;;;;27.90;16.50;;;;;;;9.36;65.60;100311.27;116707;1200;22348;-63
2021/10/27 13:45:50;;;;;;;36.20;17.50;;;;;;;9.33;65.97;100319.07;116572;1200;22372;-62
2021/10/27 13:48:38;;;;;;;31.00;17.20;;;;;;;9.32;66.14;100324.85;116510;1201;138490;-62
2021/10/27 14:07:57;;;;;;;52.50;27.40;;;;;;;9.02;67.69;100345.39;116609;1201;138087;-62
2021/10/27 14:10:54;;;;;;;40.50;23.20;;;;;;;8.99;67.88;100345.71;116627;1200;22341;-62
2021/10/27 14:13:36;;;;;;;34.80;21.90;;;;;;;8.95;67.97;100348.20;116584;1200;138659;-62
2021/10/27 14:19:03;;;;;;;43.70;22.90;;;;;;;8.86;68.31;100362.42;116587;1200;138220;-62
2021/10/27 14:41:40;;;;;;;29.90;15.80;;;;;;;8.63;69.25;100381.13;116609;1202;22392;-62
2021/10/27 15:21:14;;;;;;;29.00;15.60;;;;;;;8.70;70.44;100404.14;116008;1206;22311;-62
2021/10/27 15:34:47;;;;;;;43.00;22.00;;;;;;;8.78;70.36;100405.08;115965;1206;22421;-62
2021/10/27 15:40:28;;;;;;;50.50;24.20;;;;;;;8.78;70.38;100414.70;116363;1203;22173;-63
2021/10/27 15:51:08;;;;;;;35.30;20.00;;;;;;;8.86;70.34;100419.16;116937;1199;22297;-61
2021/10/27 15:53:36;;;;;;;41.10;20.20;;;;;;;8.87;70.32;100418.52;116817;1198;23131;-62
2021/10/27 15:56:04;;;;;;;44.70;19.60;;;;;;;8.88;70.37;100422.49;116794;1199;138405;-62
2021/10/27 15:58:32;;;;;;;49.60;22.60;;;;;;;8.90;70.33;100423.23;116989;1199;22387;-61
2021/10/27 16:01:01;;;;;;;59.10;24.50;;;;;;;8.90;70.39;100420.39;116591;1200;138861;-62
2021/10/27 16:03:30;;;;;;;88.10;32.40;;;;;;;8.92;70.38;100423.46;116922;1199;23480;-62
2021/10/27 16:05:59;;;;;;;48.90;22.70;;;;;;;8.93;70.38;100423.58;116996;1199;22789;-62
2021/10/27 16:08:28;;;;;;;41.10;20.20;;;;;;;8.95;70.18;100425.56;116773;1198;138387;-62
2021/10/27 16:10:57;;;;;;;34.30;18.90;;;;;;;8.95;70.33;100422.90;117045;1199;22332;-62
2021/10/27 16:13:25;;;;;;;30.10;17.30;;;;;;;8.96;70.25;100426.45;116865;1198;138536;-62
2021/10/27 16:16:00;;;;;;;31.10;17.70;;;;;;;8.95;70.03;100426.13;116901;1197;22336;-62
2021/10/27 16:18:31;;;;;;;26.90;16.20;;;;;;;8.96;70.06;100425.91;116966;1198;22755;-62
2021/10/27 16:21:00;;;;;;;39.10;19.40;;;;;;;8.96;69.96;100425.36;116864;1199;138239;-63